Airfield :
LOGIN :

Register | Disclaimer

   EN    FR    IT 

 










Legend :    VFR   Marginal VFR   IFR   Intensive IFR   Very Intensive IFR
Visi :
Ceiling :
>= 8 km
>= 3000ft
5 to 8 km
1000 to 3000 ft
1500m to 5 km
500 to 1000 ft
800 to 1500m
200 to 500 ft
< 800m
< 200 ft
Symbols :   Thunderstorms  Fog  Heavy snow  Heavy precipitations  Wind > 20 kt
SIGMETs :     Misc.  Thunderstorms  Icing  Turbulence  Mountain Waves  Volcanic Ashes






- Airport Elevation : 308 ft
- IATA code : POZ


EPPO - Poznan-Lawica

CURRENT METAR :
  • 021800Z 30007KT CAVOK 20/08 Q1011

EXPIRED METARs :
  • 021730Z 31008KT CAVOK 20/07 Q1011
  • 021700Z 30011KT CAVOK 20/07 Q1011
  • 021630Z 30011KT CAVOK 21/07 Q1010
  • 021600Z 29014KT CAVOK 21/07 Q1010
  • 021530Z 28012KT CAVOK 21/07 Q1010

TAF TAF EPPO
Valid from the 02 at 18:00 until the 03 at 18:00 UTC


021730Z 0218/0318 29010KT CAVOK
BECMG 0219/0222 23005KT
PROB40
TEMPO 0312/0317 SHRA BKN035CB



MET'MAP, your aeronautical weather chart ! - Copyright ORBIFLY December 2007 - Disclaimer

ORBIFLY MET'MAP TEAM :

Programming & Development : Alexandra Zaïnal
Concept & original design : Baudouin d'Aumeries
Assistance for programming : Marc-Olivier Méhu
Technical & hardware support : Manuel Goepfert

Contact : metmap@orbifly.com




SOURCES & CREDITS :

   NOAA